Hmcs Ottawa — CGAL — position and weather

sailwx.info

Track history (hours):
 
Tides and Currents Weather Stations Pressure Air Temp Water Temp Dewpoint Dewpoint Depression Visibility Wind Speed Wind Dir Waves Ship Positions

Hmcs Ottawa

Last reported at 2017-Sep-21 16:38 UTC. Time now 2017-Nov-24 07:15 UTC.
Position N 48°26' W 123°27'.
Warning: this ship's position is months out of date.

; draft 7.4 m.

Type: Military. MMSI: 316195000.

Date/timePositionNaut miles runAvg speedWind from/ knotsBaromVisibWave heightAir tempDewpointWater temp
2017-Sep-21 16:38N 48°26' W 123°27'1 3.7
2017-Sep-21 16:26N 48°26' W 123°27'2 5.5
2017-Sep-21 16:01N 48°23' W 123°28'4 7.3
2017-Sep-21 15:30N 48°20' W 123°30'1 1.1
2017-Sep-21 15:00N 48°20' W 123°30'3 6.5
2017-Sep-21 14:30N 48°22' W 123°28'1 2.9
2017-Sep-21 14:00N 48°21' W 123°29'1 2.4
2017-Sep-21 13:30N 48°22' W 123°28'1 2.0
2017-Sep-21 13:00N 48°21' W 123°29'1 1.2
2017-Sep-21 12:29N 48°22' W 123°28'1 1.6
2017-Sep-21 12:00N 48°22' W 123°27'2 4.9
2017-Sep-21 11:30N 48°20' W 123°29'4 8.3
2017-Sep-21 10:59N 48°19' W 123°23'2 4.8
2017-Sep-21 10:30N 48°19' W 123°19'2 4.0
2017-Sep-21 10:00N 48°19' W 123°16'2 3.2
2017-Sep-21 09:30N 48°19' W 123°19'2 3.7
2017-Sep-21 09:00N 48°19' W 123°21'2 3.8
2017-Sep-21 08:30N 48°19' W 123°18'2 3.0
2017-Sep-21 08:00N 48°19' W 123°16'3 4.8
2017-Sep-21 07:22N 48°18' W 123°21'1 3.3
2017-Sep-21 07:00N 48°19' W 123°23'3 5.8
2017-Sep-21 06:30N 48°19' W 123°18'2 3.4
2017-Sep-21 06:00N 48°19' W 123°16'2 3.3
2017-Sep-21 05:30N 48°18' W 123°18'2 3.7
2017-Sep-21 05:00N 48°18' W 123°21'4 7.8
2017-Sep-21 04:30N 48°16' W 123°26'714.9
2017-Sep-21 04:01N 48°13' W 123°36'815.7
2017-Sep-21 03:30N 48°13' W 123°48'816.4
2017-Sep-21 03:00N 48°15' W 124°00'713.8
2017-Sep-21 02:30N 48°18' W 124°09'3 6.7
2017-Sep-21 02:00N 48°20' W 124°05'815.8
2017-Sep-21 01:30N 48°17' W 123°54'816.2
2017-Sep-21 00:59N 48°16' W 123°41'714.9
2017-Sep-21 00:29N 48°15' W 123°30'612.6
2017-Sep-21 00:00N 48°17' W 123°21'2 5.0
2017-Sep-20 23:31N 48°19' W 123°19'2 4.7
2017-Sep-20 23:00N 48°22' W 123°18'3 6.5
2017-Sep-20 22:30N 48°24' W 123°15'2 5.0
2017-Sep-20 22:00N 48°26' W 123°12'510.0
2017-Sep-20 21:30N 48°31' W 123°12'5 9.5
2017-Sep-20 21:00N 48°35' W 123°14'510.6
2017-Sep-20 20:30N 48°40' W 123°16'510.1
2017-Sep-20 20:00N 48°44' W 123°10'611.1
2017-Sep-20 19:27N 48°47' W 123°02'510.6
2017-Sep-20 19:00N 48°52' W 123°04'714.3
2017-Sep-20 18:30N 48°56' W 123°12'713.8
2017-Sep-20 18:00N 49°01' W 123°20'714.6
2017-Sep-20 17:30N 49°08' W 123°23'816.1
2017-Sep-20 17:00N 49°16' W 123°20'5 9.3
2017-Sep-20 16:30N 49°19' W 123°15'3 6.3
2017-Sep-20 16:00N 49°19' W 123°10'4 7.5
2017-Sep-20 15:31N 49°18' W 123°05'0 0.1
2017-Sep-20 15:00N 49°18' W 123°05'0 0.0
2017-Sep-20 14:01N 49°18' W 123°05'0 0.0
2017-Sep-20 13:31N 49°18' W 123°05'  
2017-Sep-15 19:24N 49°18' W 123°05'0 0.0
2017-Sep-15 19:00N 49°18' W 123°05'2 4.3
2017-Sep-15 18:30N 49°19' W 123°08'5 9.6
2017-Sep-15 18:00N 49°18' W 123°15'612.7
2017-Sep-15 17:31N 49°12' W 123°19'713.9
2017-Sep-15 17:00N 49°06' W 123°21'817.0
2017-Sep-15 16:31N 48°59' W 123°13'917.1
2017-Sep-15 16:01N 48°54' W 123°03'713.4
2017-Sep-15 15:30N 48°47' W 123°00'510.7
2017-Sep-15 15:00N 48°44' W 123°07'510.2
2017-Sep-15 14:30N 48°42' W 123°14'510.1
2017-Sep-15 14:00N 48°37' W 123°13'611.2
2017-Sep-15 13:30N 48°32' W 123°11'611.0
2017-Sep-15 13:00N 48°26' W 123°10'510.3
2017-Sep-15 12:30N 48°23' W 123°16'510.6
2017-Sep-15 12:00N 48°21' W 123°23'510.5
2017-Sep-15 11:31N 48°16' W 123°26'610.8
2017-Sep-15 11:00N 48°13' W 123°33'611.6
2017-Sep-15 10:30N 48°13' W 123°42'4 8.7
2017-Sep-15 10:00N 48°13' W 123°49'510.9
2017-Sep-15 09:30N 48°14' W 123°57'611.2
2017-Sep-15 09:00N 48°16' W 124°04'611.4
2017-Sep-15 08:30N 48°19' W 124°12'611.7
2017-Sep-15 08:00N 48°21' W 124°20'611.5
2017-Sep-15 07:30N 48°24' W 124°28'510.8
2017-Sep-15 07:01N 48°26' W 124°35'610.8
2017-Sep-15 06:30N 48°28' W 124°43'5 9.8
2017-Sep-15 06:00N 48°29' W 124°50'5 9.2
2017-Sep-15 05:30N 48°29' W 124°57'4 7.6
2017-Sep-15 05:00N 48°27' W 125°02'5 9.7
2017-Sep-15 04:30N 48°22' W 125°05'714.2
2017-Sep-15 04:00N 48°15' W 125°08'917.6
2017-Sep-15 03:30N 48°07' W 125°12'917.5
2017-Sep-15 03:01N 47°59' W 125°15'917.4
2017-Sep-15 02:30N 47°50' W 125°19'917.6
2017-Sep-15 02:00N 47°42' W 125°23'1017.7
2017-Sep-15 01:25N 47°32' W 125°27'1016.3
2017-Sep-15 00:49N 47°22' W 125°31'82019.3
2017-Sep-13 06:19N 34°02' W 121°36'724.7
2017-Sep-13 06:01N 33°57' W 121°29'1224.5
2017-Sep-13 05:30N 33°51' W 121°16'1224.2
2017-Sep-13 05:01N 33°44' W 121°04'1224.0
2017-Sep-13 04:31N 33°37' W 120°53'1223.9
2017-Sep-13 04:00N 33°30' W 120°41'1224.1
2017-Sep-13 03:31N 33°23' W 120°29'1224.1
2017-Sep-13 03:01N 33°16' W 120°17'1224.4
2017-Sep-13 02:31N 33°10' W 120°05'1724.3
2017-Sep-13 01:48N 33°00' W 119°47'924.2
2017-Sep-13 01:25N 32°55' W 119°38'1423.9
2017-Sep-13 00:50N 32°46' W 119°25'1124.0
2017-Sep-13 00:22N 32°40' W 119°15'923.6
2017-Sep-13 00:00N 32°37' W 119°05'2421.6
2017-Sep-12 22:54N 32°37' W 118°37'2716.4
2017-Sep-12 21:16N 32°38' W 118°05'622.3
2017-Sep-12 21:00N 32°38' W 117°58'917.6
2017-Sep-12 20:30N 32°38' W 117°48'917.4
2017-Sep-12 20:01N 32°38' W 117°37'917.2
2017-Sep-12 19:31N 32°37' W 117°27'1019.1
2017-Sep-12 19:01N 32°37' W 117°16'713.3
2017-Sep-12 18:30N 32°43' W 117°13'5 1.5
2017-Sep-12 15:19N 32°41' W 117°08'1 3.4
2017-Sep-12 15:00N 32°41' W 117°09'4 8.0
2017-Sep-12 14:31N 32°42' W 117°14'510.8
2017-Sep-12 14:01N 32°37' W 117°14'713.8
2017-Sep-12 13:30N 32°37' W 117°23'714.0
2017-Sep-12 13:01N 32°40' W 117°30'815.5
2017-Sep-12 12:30N 32°45' W 117°37'815.1
2017-Sep-12 12:00N 32°50' W 117°44'815.4
2017-Sep-12 11:30N 32°55' W 117°51'815.4
2017-Sep-12 11:00N 32°59' W 117°58'815.7
2017-Sep-12 10:30N 33°04' W 118°06'815.1
2017-Sep-12 10:00N 33°06' W 118°15'714.9
2017-Sep-12 09:30N 33°07' W 118°23'715.0
2017-Sep-12 09:00N 33°08' W 118°32'1115.6
2017-Sep-12 08:19N 33°09' W 118°45'515.7
2017-Sep-12 08:00N 33°10' W 118°51'815.6
2017-Sep-12 07:30N 33°10' W 119°00'815.9
2017-Sep-12 07:00N 33°05' W 119°07'  
Track history (hours):
 
Tides and Currents Weather Stations Pressure Air Temp Water Temp Dewpoint Dewpoint Depression Visibility Wind Speed Wind Dir Waves Ship Positions

Hmcs Ottawa

Last reported at 2017-Sep-21 16:38 UTC. Time now 2017-Nov-24 07:15 UTC.
Position N 48°26' W 123°27'.
Warning: this ship's position is months out of date.

; draft 7.4 m.

Type: Military. MMSI: 316195000.

Date/timePositionNaut miles runAvg speedWind from/ knotsBaromVisibWave heightAir tempDewpointWater temp
2017-Sep-21 16:38N 48°26' W 123°27'1 3.7
2017-Sep-21 16:26N 48°26' W 123°27'2 5.5
2017-Sep-21 16:01N 48°23' W 123°28'4 7.3
2017-Sep-21 15:30N 48°20' W 123°30'1 1.1
2017-Sep-21 15:00N 48°20' W 123°30'3 6.5
2017-Sep-21 14:30N 48°22' W 123°28'1 2.9
2017-Sep-21 14:00N 48°21' W 123°29'1 2.4
2017-Sep-21 13:30N 48°22' W 123°28'1 2.0
2017-Sep-21 13:00N 48°21' W 123°29'1 1.2
2017-Sep-21 12:29N 48°22' W 123°28'1 1.6
2017-Sep-21 12:00N 48°22' W 123°27'2 4.9
2017-Sep-21 11:30N 48°20' W 123°29'4 8.3
2017-Sep-21 10:59N 48°19' W 123°23'2 4.8
2017-Sep-21 10:30N 48°19' W 123°19'2 4.0
2017-Sep-21 10:00N 48°19' W 123°16'2 3.2
2017-Sep-21 09:30N 48°19' W 123°19'2 3.7
2017-Sep-21 09:00N 48°19' W 123°21'2 3.8
2017-Sep-21 08:30N 48°19' W 123°18'2 3.0
2017-Sep-21 08:00N 48°19' W 123°16'3 4.8
2017-Sep-21 07:22N 48°18' W 123°21'1 3.3
2017-Sep-21 07:00N 48°19' W 123°23'3 5.8
2017-Sep-21 06:30N 48°19' W 123°18'2 3.4
2017-Sep-21 06:00N 48°19' W 123°16'2 3.3
2017-Sep-21 05:30N 48°18' W 123°18'2 3.7
2017-Sep-21 05:00N 48°18' W 123°21'4 7.8
2017-Sep-21 04:30N 48°16' W 123°26'714.9
2017-Sep-21 04:01N 48°13' W 123°36'815.7
2017-Sep-21 03:30N 48°13' W 123°48'816.4
2017-Sep-21 03:00N 48°15' W 124°00'713.8
2017-Sep-21 02:30N 48°18' W 124°09'3 6.7
2017-Sep-21 02:00N 48°20' W 124°05'815.8
2017-Sep-21 01:30N 48°17' W 123°54'816.2
2017-Sep-21 00:59N 48°16' W 123°41'714.9
2017-Sep-21 00:29N 48°15' W 123°30'612.6
2017-Sep-21 00:00N 48°17' W 123°21'2 5.0
2017-Sep-20 23:31N 48°19' W 123°19'2 4.7
2017-Sep-20 23:00N 48°22' W 123°18'3 6.5
2017-Sep-20 22:30N 48°24' W 123°15'2 5.0
2017-Sep-20 22:00N 48°26' W 123°12'510.0
2017-Sep-20 21:30N 48°31' W 123°12'5 9.5
2017-Sep-20 21:00N 48°35' W 123°14'510.6
2017-Sep-20 20:30N 48°40' W 123°16'510.1
2017-Sep-20 20:00N 48°44' W 123°10'611.1
2017-Sep-20 19:27N 48°47' W 123°02'510.6
2017-Sep-20 19:00N 48°52' W 123°04'714.3
2017-Sep-20 18:30N 48°56' W 123°12'713.8
2017-Sep-20 18:00N 49°01' W 123°20'714.6
2017-Sep-20 17:30N 49°08' W 123°23'816.1
2017-Sep-20 17:00N 49°16' W 123°20'5 9.3
2017-Sep-20 16:30N 49°19' W 123°15'3 6.3
2017-Sep-20 16:00N 49°19' W 123°10'4 7.5
2017-Sep-20 15:31N 49°18' W 123°05'0 0.1
2017-Sep-20 15:00N 49°18' W 123°05'0 0.0
2017-Sep-20 14:01N 49°18' W 123°05'0 0.0
2017-Sep-20 13:31N 49°18' W 123°05'  
2017-Sep-15 19:24N 49°18' W 123°05'0 0.0
2017-Sep-15 19:00N 49°18' W 123°05'2 4.3
2017-Sep-15 18:30N 49°19' W 123°08'5 9.6
2017-Sep-15 18:00N 49°18' W 123°15'612.7
2017-Sep-15 17:31N 49°12' W 123°19'713.9
2017-Sep-15 17:00N 49°06' W 123°21'817.0
2017-Sep-15 16:31N 48°59' W 123°13'917.1
2017-Sep-15 16:01N 48°54' W 123°03'713.4
2017-Sep-15 15:30N 48°47' W 123°00'510.7
2017-Sep-15 15:00N 48°44' W 123°07'510.2
2017-Sep-15 14:30N 48°42' W 123°14'510.1
2017-Sep-15 14:00N 48°37' W 123°13'611.2
2017-Sep-15 13:30N 48°32' W 123°11'611.0
2017-Sep-15 13:00N 48°26' W 123°10'510.3
2017-Sep-15 12:30N 48°23' W 123°16'510.6
2017-Sep-15 12:00N 48°21' W 123°23'510.5
2017-Sep-15 11:31N 48°16' W 123°26'610.8
2017-Sep-15 11:00N 48°13' W 123°33'611.6
2017-Sep-15 10:30N 48°13' W 123°42'4 8.7
2017-Sep-15 10:00N 48°13' W 123°49'510.9
2017-Sep-15 09:30N 48°14' W 123°57'611.2
2017-Sep-15 09:00N 48°16' W 124°04'611.4
2017-Sep-15 08:30N 48°19' W 124°12'611.7
2017-Sep-15 08:00N 48°21' W 124°20'611.5
2017-Sep-15 07:30N 48°24' W 124°28'510.8
2017-Sep-15 07:01N 48°26' W 124°35'610.8
2017-Sep-15 06:30N 48°28' W 124°43'5 9.8
2017-Sep-15 06:00N 48°29' W 124°50'5 9.2
2017-Sep-15 05:30N 48°29' W 124°57'4 7.6
2017-Sep-15 05:00N 48°27' W 125°02'5 9.7
2017-Sep-15 04:30N 48°22' W 125°05'714.2
2017-Sep-15 04:00N 48°15' W 125°08'917.6
2017-Sep-15 03:30N 48°07' W 125°12'917.5
2017-Sep-15 03:01N 47°59' W 125°15'917.4
2017-Sep-15 02:30N 47°50' W 125°19'917.6
2017-Sep-15 02:00N 47°42' W 125°23'1017.7
2017-Sep-15 01:25N 47°32' W 125°27'1016.3
2017-Sep-15 00:49N 47°22' W 125°31'82019.3
2017-Sep-13 06:19N 34°02' W 121°36'724.7
2017-Sep-13 06:01N 33°57' W 121°29'1224.5
2017-Sep-13 05:30N 33°51' W 121°16'1224.2
2017-Sep-13 05:01N 33°44' W 121°04'1224.0
2017-Sep-13 04:31N 33°37' W 120°53'1223.9
2017-Sep-13 04:00N 33°30' W 120°41'1224.1
2017-Sep-13 03:31N 33°23' W 120°29'1224.1
2017-Sep-13 03:01N 33°16' W 120°17'1224.4
2017-Sep-13 02:31N 33°10' W 120°05'1724.3
2017-Sep-13 01:48N 33°00' W 119°47'924.2
2017-Sep-13 01:25N 32°55' W 119°38'1423.9
2017-Sep-13 00:50N 32°46' W 119°25'1124.0
2017-Sep-13 00:22N 32°40' W 119°15'923.6
2017-Sep-13 00:00N 32°37' W 119°05'2421.6
2017-Sep-12 22:54N 32°37' W 118°37'2716.4
2017-Sep-12 21:16N 32°38' W 118°05'622.3
2017-Sep-12 21:00N 32°38' W 117°58'917.6
2017-Sep-12 20:30N 32°38' W 117°48'917.4
2017-Sep-12 20:01N 32°38' W 117°37'917.2
2017-Sep-12 19:31N 32°37' W 117°27'1019.1
2017-Sep-12 19:01N 32°37' W 117°16'713.3
2017-Sep-12 18:30N 32°43' W 117°13'5 1.5
2017-Sep-12 15:19N 32°41' W 117°08'1 3.4
2017-Sep-12 15:00N 32°41' W 117°09'4 8.0
2017-Sep-12 14:31N 32°42' W 117°14'510.8
2017-Sep-12 14:01N 32°37' W 117°14'713.8
2017-Sep-12 13:30N 32°37' W 117°23'714.0
2017-Sep-12 13:01N 32°40' W 117°30'815.5
2017-Sep-12 12:30N 32°45' W 117°37'815.1
2017-Sep-12 12:00N 32°50' W 117°44'815.4
2017-Sep-12 11:30N 32°55' W 117°51'815.4
2017-Sep-12 11:00N 32°59' W 117°58'815.7
2017-Sep-12 10:30N 33°04' W 118°06'815.1
2017-Sep-12 10:00N 33°06' W 118°15'714.9
2017-Sep-12 09:30N 33°07' W 118°23'715.0
2017-Sep-12 09:00N 33°08' W 118°32'1115.6
2017-Sep-12 08:19N 33°09' W 118°45'515.7
2017-Sep-12 08:00N 33°10' W 118°51'815.6
2017-Sep-12 07:30N 33°10' W 119°00'815.9
2017-Sep-12 07:00N 33°05' W 119°07'  

Dump ship's entire track history